sensor_id;sensor_type;location;lat;lon;timestamp;pressure;altitude;pressure_sealevel;temperature;humidity
62791;BME280;48830;53.426;10.300;2023-06-14T00:01:36;101786.56;;;16.03;85.99
62791;BME280;48830;53.426;10.300;2023-06-14T00:04:03;101786.56;;;16.01;86.41
62791;BME280;48830;53.426;10.300;2023-06-14T00:06:34;101795.25;;;16.07;86.32
62791;BME280;48830;53.426;10.300;2023-06-14T00:08:59;101806.50;;;16.07;85.92
62791;BME280;48830;53.426;10.300;2023-06-14T00:11:24;101797.75;;;15.97;87.08
62791;BME280;48830;53.426;10.300;2023-06-14T00:13:52;101801.28;;;16.02;86.68
62791;BME280;48830;53.426;10.300;2023-06-14T00:16:17;101804.72;;;15.98;86.27
62791;BME280;48830;53.426;10.300;2023-06-14T00:18:45;101807.31;;;15.98;86.66
62791;BME280;48830;53.426;10.300;2023-06-14T00:21:11;101804.66;;;15.94;86.86
62791;BME280;48830;53.426;10.300;2023-06-14T00:23:37;101810.69;;;15.91;87.19
62791;BME280;48830;53.426;10.300;2023-06-14T00:26:03;101806.41;;;15.95;86.46
62791;BME280;48830;53.426;10.300;2023-06-14T00:28:28;101808.09;;;15.90;86.98
62791;BME280;48830;53.426;10.300;2023-06-14T00:30:54;101815.00;;;15.91;87.10
62791;BME280;48830;53.426;10.300;2023-06-14T00:33:20;101807.13;;;15.82;87.28
62791;BME280;48830;53.426;10.300;2023-06-14T00:35:45;101810.66;;;15.88;86.30
62791;BME280;48830;53.426;10.300;2023-06-14T00:38:12;101807.13;;;15.82;87.77
62791;BME280;48830;53.426;10.300;2023-06-14T00:40:40;101816.66;;;15.84;87.42
62791;BME280;48830;53.426;10.300;2023-06-14T00:43:06;101813.97;;;15.75;88.16
62791;BME280;48830;53.426;10.300;2023-06-14T00:45:31;101812.19;;;15.71;88.91
62791;BME280;48830;53.426;10.300;2023-06-14T00:48:01;101819.16;;;15.77;88.29
62791;BME280;48830;53.426;10.300;2023-06-14T00:50:28;101820.81;;;15.70;89.12
62791;BME280;48830;53.426;10.300;2023-06-14T00:52:55;101826.88;;;15.70;89.64
62791;BME280;48830;53.426;10.300;2023-06-14T00:55:21;101825.13;;;15.66;90.17
62791;BME280;48830;53.426;10.300;2023-06-14T00:57:47;101824.28;;;15.70;89.77
62791;BME280;48830;53.426;10.300;2023-06-14T01:00:13;101825.94;;;15.64;90.14
62791;BME280;48830;53.426;10.300;2023-06-14T01:02:39;101830.28;;;15.65;90.04
62791;BME280;48830;53.426;10.300;2023-06-14T01:05:08;101821.53;;;15.60;90.25
62791;BME280;48830;53.426;10.300;2023-06-14T01:15:36;101824.97;;;15.56;90.58
62791;BME280;48830;53.426;10.300;2023-06-14T01:18:03;101822.34;;;15.53;91.32
62791;BME280;48830;53.426;10.300;2023-06-14T01:20:32;101823.13;;;15.47;91.89
62791;BME280;48830;53.426;10.300;2023-06-14T01:22:59;101817.97;;;15.48;91.83
62791;BME280;48830;53.426;10.300;2023-06-14T01:25:25;101825.75;;;15.48;91.85
62791;BME280;48830;53.426;10.300;2023-06-14T01:27:55;101824.81;;;15.43;92.47
62791;BME280;48830;53.426;10.300;2023-06-14T01:30:22;101822.28;;;15.46;91.83
62791;BME280;48830;53.426;10.300;2023-06-14T01:32:49;101831.72;;;15.43;92.43
62791;BME280;48830;53.426;10.300;2023-06-14T01:35:16;101825.66;;;15.42;92.32
62791;BME280;48830;53.426;10.300;2023-06-14T01:37:42;101823.88;;;15.38;93.01
62791;BME280;48830;53.426;10.300;2023-06-14T01:40:09;101828.09;;;15.29;93.58
62791;BME280;48830;53.426;10.300;2023-06-14T01:42:36;101829.03;;;15.34;93.54
62791;BME280;48830;53.426;10.300;2023-06-14T01:45:04;101834.22;;;15.35;93.11
62791;BME280;48830;53.426;10.300;2023-06-14T01:47:31;101831.50;;;15.26;93.83
62791;BME280;48830;53.426;10.300;2023-06-14T01:49:58;101830.72;;;15.30;93.60
62791;BME280;48830;53.426;10.300;2023-06-14T01:52:24;101834.22;;;15.35;93.00
62791;BME280;48830;53.426;10.300;2023-06-14T01:54:50;101835.91;;;15.33;92.84
62791;BME280;48830;53.426;10.300;2023-06-14T01:57:15;101834.16;;;15.29;93.03
62791;BME280;48830;53.426;10.300;2023-06-14T01:59:41;101836.63;;;15.21;93.61
62791;BME280;48830;53.426;10.300;2023-06-14T02:02:08;101837.34;;;15.10;94.75
62791;BME280;48830;53.426;10.300;2023-06-14T02:04:34;101837.41;;;15.14;94.22
62791;BME280;48830;53.426;10.300;2023-06-14T02:06:59;101840.88;;;15.15;94.38
62791;BME280;48830;53.426;10.300;2023-06-14T02:09:25;101835.56;;;15.06;95.00
62791;BME280;48830;53.426;10.300;2023-06-14T02:11:53;101839.06;;;15.08;94.84
62791;BME280;48830;53.426;10.300;2023-06-14T02:14:19;101832.88;;;15.00;95.75
62791;BME280;48830;53.426;10.300;2023-06-14T02:16:45;101844.16;;;15.02;95.35
62791;BME280;48830;53.426;10.300;2023-06-14T02:19:17;101845.84;;;15.00;96.30
62791;BME280;48830;53.426;10.300;2023-06-14T02:21:43;101841.44;;;14.92;96.38
62791;BME280;48830;53.426;10.300;2023-06-14T02:24:12;101840.47;;;14.86;97.42
62791;BME280;48830;53.426;10.300;2023-06-14T02:26:37;101849.06;;;14.83;98.19
62791;BME280;48830;53.426;10.300;2023-06-14T02:29:11;101850.78;;;14.84;97.47
62791;BME280;48830;53.426;10.300;2023-06-14T02:31:40;101847.31;;;14.81;97.52
62791;BME280;48830;53.426;10.300;2023-06-14T02:34:05;101847.22;;;14.76;97.69
62791;BME280;48830;53.426;10.300;2023-06-14T02:36:34;101849.75;;;14.72;98.87
62791;BME280;48830;53.426;10.300;2023-06-14T02:39:00;101851.44;;;14.69;99.55
62791;BME280;48830;53.426;10.300;2023-06-14T02:41:26;101855.63;;;14.63;100.00
62791;BME280;48830;53.426;10.300;2023-06-14T02:43:55;101841.81;;;14.61;99.74
62791;BME280;48830;53.426;10.300;2023-06-14T02:46:21;101853.91;;;14.62;99.90
62791;BME280;48830;53.426;10.300;2023-06-14T02:48:48;101860.69;;;14.54;100.00
62791;BME280;48830;53.426;10.300;2023-06-14T02:51:14;101857.09;;;14.47;100.00
62791;BME280;48830;53.426;10.300;2023-06-14T02:53:39;101863.00;;;14.41;100.00
62791;BME280;48830;53.426;10.300;2023-06-14T02:56:05;101862.16;;;14.41;100.00
62791;BME280;48830;53.426;10.300;2023-06-14T02:58:31;101862.22;;;14.45;100.00
62791;BME280;48830;53.426;10.300;2023-06-14T03:00:56;101857.09;;;14.47;100.00
62791;BME280;48830;53.426;10.300;2023-06-14T03:03:22;101867.22;;;14.36;100.00
62791;BME280;48830;53.426;10.300;2023-06-14T03:05:53;101867.13;;;14.30;100.00
62791;BME280;48830;53.426;10.300;2023-06-14T03:08:22;101873.25;;;14.35;100.00
62791;BME280;48830;53.426;10.300;2023-06-14T03:10:53;101865.50;;;14.35;100.00
62791;BME280;48830;53.426;10.300;2023-06-14T03:13:21;101865.59;;;14.41;100.00
62791;BME280;48830;53.426;10.300;2023-06-14T03:15:48;101869.81;;;14.36;100.00
62791;BME280;48830;53.426;10.300;2023-06-14T03:18:18;101873.19;;;14.31;100.00
62791;BME280;48830;53.426;10.300;2023-06-14T03:20:45;101874.94;;;14.32;100.00
62791;BME280;48830;53.426;10.300;2023-06-14T03:23:13;101876.50;;;14.22;100.00
62791;BME280;48830;53.426;10.300;2023-06-14T03:25:39;101882.63;;;14.27;100.00
62791;BME280;48830;53.426;10.300;2023-06-14T03:28:09;101883.66;;;14.37;100.00
62791;BME280;48830;53.426;10.300;2023-06-14T03:30:34;101897.13;;;14.19;100.00
62791;BME280;48830;53.426;10.300;2023-06-14T03:33:00;101886.09;;;14.31;100.00
62791;BME280;48830;53.426;10.300;2023-06-14T03:35:31;101893.81;;;14.26;100.00
62791;BME280;48830;53.426;10.300;2023-06-14T03:37:56;101895.47;;;14.23;100.00
62791;BME280;48830;53.426;10.300;2023-06-14T03:40:23;101889.50;;;14.27;100.00
62791;BME280;48830;53.426;10.300;2023-06-14T03:42:56;101898.13;;;14.27;100.00
62791;BME280;48830;53.426;10.300;2023-06-14T03:45:22;101904.25;;;14.32;100.00
62791;BME280;48830;53.426;10.300;2023-06-14T03:47:47;101903.19;;;14.21;100.00
62791;BME280;48830;53.426;10.300;2023-06-14T03:50:13;101912.78;;;14.27;100.00
62791;BME280;48830;53.426;10.300;2023-06-14T03:52:39;101911.09;;;14.29;100.00
62791;BME280;48830;53.426;10.300;2023-06-14T03:55:07;101910.22;;;14.28;100.00
62791;BME280;48830;53.426;10.300;2023-06-14T03:57:33;101919.63;;;14.25;100.00
62791;BME280;48830;53.426;10.300;2023-06-14T03:59:59;101912.78;;;14.27;100.00
62791;BME280;48830;53.426;10.300;2023-06-14T04:02:25;101923.25;;;14.34;100.00
62791;BME280;48830;53.426;10.300;2023-06-14T04:04:54;101927.53;;;14.32;100.00
62791;BME280;48830;53.426;10.300;2023-06-14T04:07:20;101925.09;;;14.41;100.00
62791;BME280;48830;53.426;10.300;2023-06-14T04:09:46;101929.38;;;14.39;100.00
62791;BME280;48830;53.426;10.300;2023-06-14T04:12:11;101925.03;;;14.37;100.00
62791;BME280;48830;53.426;10.300;2023-06-14T04:14:38;101931.19;;;14.43;100.00
62791;BME280;48830;53.426;10.300;2023-06-14T04:17:06;101928.75;;;14.50;100.00
62791;BME280;48830;53.426;10.300;2023-06-14T04:19:32;101933.16;;;14.57;100.00
62791;BME280;48830;53.426;10.300;2023-06-14T04:21:58;101930.56;;;14.55;100.00
62791;BME280;48830;53.426;10.300;2023-06-14T04:24:26;101929.84;;;14.64;100.00
62791;BME280;48830;53.426;10.300;2023-06-14T04:26:58;101924.81;;;14.73;100.00
62791;BME280;48830;53.426;10.300;2023-06-14T04:29:24;101927.56;;;14.82;100.00
62791;BME280;48830;53.426;10.300;2023-06-14T04:31:58;101939.75;;;14.89;100.00
62791;BME280;48830;53.426;10.300;2023-06-14T04:34:28;101945.88;;;14.94;100.00
62791;BME280;48830;53.426;10.300;2023-06-14T04:36:59;101948.53;;;14.98;100.00
62791;BME280;48830;53.426;10.300;2023-06-14T04:39:47;101942.56;;;15.02;100.00
62791;BME280;48830;53.426;10.300;2023-06-14T04:42:13;101943.50;;;15.08;100.00
62791;BME280;48830;53.426;10.300;2023-06-14T04:44:42;101941.00;;;15.14;100.00
62791;BME280;48830;53.426;10.300;2023-06-14T04:47:10;101947.13;;;15.21;100.00
62791;BME280;48830;53.426;10.300;2023-06-14T04:49:38;101942.13;;;15.32;100.00
62791;BME280;48830;53.426;10.300;2023-06-14T04:52:05;101941.38;;;15.40;100.00
62791;BME280;48830;53.426;10.300;2023-06-14T04:54:34;101952.66;;;15.44;100.00
62791;BME280;48830;53.426;10.300;2023-06-14T04:57:06;101947.66;;;15.58;100.00
62791;BME280;48830;53.426;10.300;2023-06-14T04:59:32;101946.19;;;15.75;100.00
62791;BME280;48830;53.426;10.300;2023-06-14T05:01:59;101944.56;;;15.83;100.00
62791;BME280;48830;53.426;10.300;2023-06-14T05:04:25;101942.91;;;15.90;100.00
62791;BME280;48830;53.426;10.300;2023-06-14T05:06:53;101946.50;;;16.01;99.10
62791;BME280;48830;53.426;10.300;2023-06-14T05:09:20;101947.50;;;16.14;98.45
62791;BME280;48830;53.426;10.300;2023-06-14T05:11:46;101945.88;;;16.25;97.68
62791;BME280;48830;53.426;10.300;2023-06-14T05:14:13;101949.50;;;16.36;95.82
62791;BME280;48830;53.426;10.300;2023-06-14T05:16:39;101949.59;;;16.50;95.09
62791;BME280;48830;53.426;10.300;2023-06-14T05:19:06;101957.50;;;16.62;94.02
62791;BME280;48830;53.426;10.300;2023-06-14T05:21:31;101954.06;;;16.63;94.18
62791;BME280;48830;53.426;10.300;2023-06-14T05:24:00;101957.66;;;16.74;92.47
62791;BME280;48830;53.426;10.300;2023-06-14T05:26:26;101957.72;;;16.81;93.33
62791;BME280;48830;53.426;10.300;2023-06-14T05:28:56;101951.75;;;16.92;92.39
62791;BME280;48830;53.426;10.300;2023-06-14T05:31:24;101960.47;;;17.00;91.79
62791;BME280;48830;53.426;10.300;2023-06-14T05:33:51;101955.34;;;17.13;91.31
62791;BME280;48830;53.426;10.300;2023-06-14T05:36:17;101961.56;;;17.35;90.47
62791;BME280;48830;53.426;10.300;2023-06-14T05:38:43;101960.72;;;17.43;88.39
62791;BME280;48830;53.426;10.300;2023-06-14T05:41:08;101966.03;;;17.58;86.98
62791;BME280;48830;53.426;10.300;2023-06-14T05:43:34;101965.19;;;17.64;87.42
62791;BME280;48830;53.426;10.300;2023-06-14T05:45:59;101972.13;;;17.62;86.05
62791;BME280;48830;53.426;10.300;2023-06-14T05:48:25;101979.09;;;17.71;85.54
62791;BME280;48830;53.426;10.300;2023-06-14T05:50:50;101975.75;;;17.90;84.40
62791;BME280;48830;53.426;10.300;2023-06-14T05:53:16;101983.59;;;17.98;83.44
62791;BME280;48830;53.426;10.300;2023-06-14T05:55:42;101978.41;;;18.12;81.11
62791;BME280;48830;53.426;10.300;2023-06-14T05:58:07;101978.47;;;18.21;80.84
62791;BME280;48830;53.426;10.300;2023-06-14T06:00:33;101973.25;;;18.24;80.35
62791;BME280;48830;53.426;10.300;2023-06-14T06:02:58;101981.97;;;18.44;80.80
62791;BME280;48830;53.426;10.300;2023-06-14T06:05:24;101981.13;;;18.56;80.15
62791;BME280;48830;53.426;10.300;2023-06-14T06:07:50;101986.31;;;18.50;78.82
62791;BME280;48830;53.426;10.300;2023-06-14T06:10:15;101983.75;;;18.65;78.33
62791;BME280;48830;53.426;10.300;2023-06-14T06:12:41;101986.34;;;18.67;77.39
62791;BME280;48830;53.426;10.300;2023-06-14T06:15:07;101984.66;;;18.84;76.16
62791;BME280;48830;53.426;10.300;2023-06-14T06:17:37;101978.56;;;18.88;75.36
62791;BME280;48830;53.426;10.300;2023-06-14T06:20:03;101981.19;;;18.97;74.98
62791;BME280;48830;53.426;10.300;2023-06-14T06:22:30;101978.56;;;19.22;75.95
62791;BME280;48830;53.426;10.300;2023-06-14T06:24:56;101974.22;;;19.28;75.20
62791;BME280;48830;53.426;10.300;2023-06-14T06:27:21;101977.66;;;19.35;74.74
62791;BME280;48830;53.426;10.300;2023-06-14T06:29:47;101986.34;;;19.38;74.42
62791;BME280;48830;53.426;10.300;2023-06-14T06:32:14;101990.66;;;19.65;72.89
62791;BME280;48830;53.426;10.300;2023-06-14T06:34:40;101995.84;;;19.81;72.20
62791;BME280;48830;53.426;10.300;2023-06-14T06:37:05;101991.50;;;19.75;70.78
62791;BME280;48830;53.426;10.300;2023-06-14T06:39:31;101994.91;;;19.89;70.33
62791;BME280;48830;53.426;10.300;2023-06-14T06:41:57;101994.00;;;20.04;69.95
62791;BME280;48830;53.426;10.300;2023-06-14T06:44:31;101989.59;;;20.14;69.06
62791;BME280;48830;53.426;10.300;2023-06-14T06:46:57;102004.28;;;20.32;68.28
62791;BME280;48830;53.426;10.300;2023-06-14T06:49:23;102002.69;;;20.03;66.48
62791;BME280;48830;53.426;10.300;2023-06-14T06:52:02;101998.22;;;20.30;66.26
62791;BME280;48830;53.426;10.300;2023-06-14T06:54:28;102005.97;;;20.47;66.06
62791;BME280;48830;53.426;10.300;2023-06-14T06:56:53;102008.59;;;20.42;65.71
62791;BME280;48830;53.426;10.300;2023-06-14T06:59:19;101999.03;;;20.38;65.97
62791;BME280;48830;53.426;10.300;2023-06-14T07:01:45;102013.69;;;20.68;66.02
62791;BME280;48830;53.426;10.300;2023-06-14T07:04:12;102004.81;;;20.86;66.34
62791;BME280;48830;53.426;10.300;2023-06-14T07:06:37;102005.72;;;20.82;62.81
62791;BME280;48830;53.426;10.300;2023-06-14T07:09:03;102002.09;;;20.98;63.90
62791;BME280;48830;53.426;10.300;2023-06-14T07:11:30;102013.31;;;21.12;63.71
62791;BME280;48830;53.426;10.300;2023-06-14T07:13:56;102016.69;;;21.31;63.02
62791;BME280;48830;53.426;10.300;2023-06-14T07:16:21;102016.56;;;21.40;64.40
62791;BME280;48830;53.426;10.300;2023-06-14T07:18:47;102015.63;;;21.49;63.74
62791;BME280;48830;53.426;10.300;2023-06-14T07:21:12;102011.16;;;21.59;61.56
62791;BME280;48830;53.426;10.300;2023-06-14T07:23:38;102005.75;;;21.72;61.62
62791;BME280;48830;53.426;10.300;2023-06-14T07:26:03;102008.44;;;21.69;61.96
62791;BME280;48830;53.426;10.300;2023-06-14T07:28:29;102010.91;;;21.82;62.75
62791;BME280;48830;53.426;10.300;2023-06-14T07:30:54;102007.16;;;22.02;60.23
62791;BME280;48830;53.426;10.300;2023-06-14T07:33:20;102004.22;;;22.29;60.16
62791;BME280;48830;53.426;10.300;2023-06-14T07:35:45;102010.41;;;22.23;61.12
62791;BME280;48830;53.426;10.300;2023-06-14T07:38:11;102001.63;;;22.25;59.16
62791;BME280;48830;53.426;10.300;2023-06-14T07:40:36;102004.91;;;22.41;60.03
62791;BME280;48830;53.426;10.300;2023-06-14T07:43:02;102008.97;;;22.62;59.13
62791;BME280;48830;53.426;10.300;2023-06-14T07:45:27;102007.94;;;22.72;59.29
62791;BME280;48830;53.426;10.300;2023-06-14T07:47:53;102008.81;;;22.71;58.58
62791;BME280;48830;53.426;10.300;2023-06-14T07:50:19;102004.25;;;22.84;58.25
62791;BME280;48830;53.426;10.300;2023-06-14T07:52:45;102010.25;;;22.94;56.28
62791;BME280;48830;53.426;10.300;2023-06-14T07:55:10;102012.72;;;23.01;56.34
62791;BME280;48830;53.426;10.300;2023-06-14T07:57:35;102007.25;;;23.14;56.73
62791;BME280;48830;53.426;10.300;2023-06-14T08:00:03;102007.97;;;23.23;56.30
62791;BME280;48830;53.426;10.300;2023-06-14T08:02:37;102004.25;;;23.37;56.02
62791;BME280;48830;53.426;10.300;2023-06-14T08:05:03;102002.41;;;23.42;55.38
62791;BME280;48830;53.426;10.300;2023-06-14T08:07:28;102010.53;;;23.74;55.70
62791;BME280;48830;53.426;10.300;2023-06-14T08:09:54;102008.50;;;23.42;54.95
62791;BME280;48830;53.426;10.300;2023-06-14T08:12:19;102012.53;;;23.60;55.22
62791;BME280;48830;53.426;10.300;2023-06-14T08:14:44;102000.59;;;23.89;53.87
62791;BME280;48830;53.426;10.300;2023-06-14T08:17:10;102005.81;;;23.92;52.59
62791;BME280;48830;53.426;10.300;2023-06-14T08:19:35;102000.00;;;24.18;53.27
62791;BME280;48830;53.426;10.300;2023-06-14T08:22:02;101995.88;;;24.06;52.97
62791;BME280;48830;53.426;10.300;2023-06-14T08:24:29;102004.50;;;24.51;52.42
62791;BME280;48830;53.426;10.300;2023-06-14T08:26:54;102003.56;;;24.55;51.73
62791;BME280;48830;53.426;10.300;2023-06-14T08:29:21;101993.44;;;24.39;51.58
62791;BME280;48830;53.426;10.300;2023-06-14T08:31:47;102005.09;;;24.64;53.27
62791;BME280;48830;53.426;10.300;2023-06-14T08:34:12;102003.75;;;24.83;52.42
62791;BME280;48830;53.426;10.300;2023-06-14T08:36:38;102003.69;;;24.86;51.09
62791;BME280;48830;53.426;10.300;2023-06-14T08:39:03;102000.63;;;25.03;52.29
62791;BME280;48830;53.426;10.300;2023-06-14T08:41:29;102000.72;;;24.99;51.05
62791;BME280;48830;53.426;10.300;2023-06-14T08:43:56;102003.19;;;25.06;50.57
62791;BME280;48830;53.426;10.300;2023-06-14T08:46:25;101993.75;;;24.98;50.02
62791;BME280;48830;53.426;10.300;2023-06-14T08:48:55;101997.66;;;25.17;50.02
62791;BME280;48830;53.426;10.300;2023-06-14T08:51:23;101999.09;;;25.29;49.30
62791;BME280;48830;53.426;10.300;2023-06-14T08:53:53;101997.19;;;25.35;48.45
62791;BME280;48830;53.426;10.300;2023-06-14T08:56:26;101997.31;;;25.62;49.46
62791;BME280;48830;53.426;10.300;2023-06-14T08:58:53;101999.56;;;25.76;48.84
62791;BME280;48830;53.426;10.300;2023-06-14T09:01:19;102005.84;;;25.70;48.20
62791;BME280;48830;53.426;10.300;2023-06-14T09:03:48;102001.50;;;25.69;48.11
62791;BME280;48830;53.426;10.300;2023-06-14T09:06:13;101999.13;;;25.60;48.73
62791;BME280;48830;53.426;10.300;2023-06-14T09:08:43;101999.72;;;26.01;48.12
62791;BME280;48830;53.426;10.300;2023-06-14T09:11:13;101992.09;;;26.21;47.84
62791;BME280;48830;53.426;10.300;2023-06-14T09:13:39;101983.66;;;26.10;49.22
62791;BME280;48830;53.426;10.300;2023-06-14T09:16:06;101995.81;;;26.14;48.27
62791;BME280;48830;53.426;10.300;2023-06-14T09:18:43;101997.28;;;25.95;47.96
62791;BME280;48830;53.426;10.300;2023-06-14T09:21:11;102003.03;;;26.65;48.14
62791;BME280;48830;53.426;10.300;2023-06-14T09:23:38;102000.09;;;26.48;48.16
62791;BME280;48830;53.426;10.300;2023-06-14T09:26:12;101995.59;;;26.20;48.15
62791;BME280;48830;53.426;10.300;2023-06-14T09:28:45;102002.47;;;25.65;48.45
62791;BME280;48830;53.426;10.300;2023-06-14T09:31:18;101991.53;;;25.80;48.61
62791;BME280;48830;53.426;10.300;2023-06-14T09:33:45;102001.81;;;26.49;46.98
62791;BME280;48830;53.426;10.300;2023-06-14T09:36:18;101998.13;;;26.81;46.77
62791;BME280;48830;53.426;10.300;2023-06-14T09:39:03;102001.09;;;26.97;46.98
62791;BME280;48830;53.426;10.300;2023-06-14T09:41:35;101993.13;;;26.72;47.03
62791;BME280;48830;53.426;10.300;2023-06-14T09:44:03;101991.66;;;26.35;46.50
62791;BME280;48830;53.426;10.300;2023-06-14T09:46:30;101989.41;;;25.62;47.33
62791;BME280;48830;53.426;10.300;2023-06-14T09:48:57;101987.47;;;26.00;47.09
62791;BME280;48830;53.426;10.300;2023-06-14T09:51:23;101991.78;;;26.60;47.64
62791;BME280;48830;53.426;10.300;2023-06-14T09:53:49;101994.28;;;26.89;48.48
62791;BME280;48830;53.426;10.300;2023-06-14T09:56:28;101990.78;;;26.34;47.08
62791;BME280;48830;53.426;10.300;2023-06-14T09:58:58;101991.06;;;26.55;46.79
62791;BME280;48830;53.426;10.300;2023-06-14T10:01:24;101998.03;;;26.56;46.99
62791;BME280;48830;53.426;10.300;2023-06-14T10:04:01;101986.81;;;26.21;47.38
62791;BME280;48830;53.426;10.300;2023-06-14T10:06:28;101983.53;;;26.42;47.19
62791;BME280;48830;53.426;10.300;2023-06-14T10:08:56;101982.22;;;26.28;46.85
62791;BME280;48830;53.426;10.300;2023-06-14T10:11:23;101983.84;;;26.32;48.12
62791;BME280;48830;53.426;10.300;2023-06-14T10:13:50;101985.44;;;26.65;47.25
62791;BME280;48830;53.426;10.300;2023-06-14T10:16:39;101987.44;;;26.29;46.00
62791;BME280;48830;53.426;10.300;2023-06-14T10:19:29;101982.84;;;26.64;46.01
62791;BME280;48830;53.426;10.300;2023-06-14T10:22:06;101978.00;;;27.28;47.18
62791;BME280;48830;53.426;10.300;2023-06-14T10:24:40;101971.19;;;27.71;44.50
62791;BME280;48830;53.426;10.300;2023-06-14T10:27:07;101970.47;;;27.42;44.06
62791;BME280;48830;53.426;10.300;2023-06-14T10:32:22;101967.16;;;27.61;44.04
62791;BME280;48830;53.426;10.300;2023-06-14T10:34:58;101967.63;;;27.95;43.85
62791;BME280;48830;53.426;10.300;2023-06-14T10:37:23;101964.25;;;28.14;43.66
62791;BME280;48830;53.426;10.300;2023-06-14T10:39:52;101964.75;;;28.02;43.42
62791;BME280;48830;53.426;10.300;2023-06-14T10:42:18;101962.53;;;27.66;44.53
62791;BME280;48830;53.426;10.300;2023-06-14T10:44:51;101970.28;;;26.97;44.22
62791;BME280;48830;53.426;10.300;2023-06-14T10:47:24;101962.63;;;26.89;44.13
62791;BME280;48830;53.426;10.300;2023-06-14T10:50:02;101962.34;;;26.72;45.04
62791;BME280;48830;53.426;10.300;2023-06-14T10:52:29;101950.63;;;27.56;44.34
62791;BME280;48830;53.426;10.300;2023-06-14T10:57:21;101951.31;;;27.12;43.76
62791;BME280;48830;53.426;10.300;2023-06-14T10:59:46;101943.81;;;27.73;44.04
62791;BME280;48830;53.426;10.300;2023-06-14T11:05:14;101947.34;;;26.99;44.03
62791;BME280;48830;53.426;10.300;2023-06-14T11:10:39;101946.94;;;26.60;43.24
62791;BME280;48830;53.426;10.300;2023-06-14T11:13:07;101939.41;;;26.74;44.17
62791;BME280;48830;53.426;10.300;2023-06-14T11:15:34;101943.31;;;26.62;43.70
62791;BME280;48830;53.426;10.300;2023-06-14T11:18:05;101943.50;;;26.83;44.68
62791;BME280;48830;53.426;10.300;2023-06-14T11:20:33;101939.44;;;26.48;43.75
62791;BME280;48830;53.426;10.300;2023-06-14T11:22:59;101935.72;;;26.53;44.16
62791;BME280;48830;53.426;10.300;2023-06-14T11:25:25;101934.59;;;26.60;43.98
62791;BME280;48830;53.426;10.300;2023-06-14T11:27:53;101931.09;;;26.86;44.37
62791;BME280;48830;53.426;10.300;2023-06-14T11:30:19;101929.00;;;26.96;43.94
62791;BME280;48830;53.426;10.300;2023-06-14T11:32:48;101930.97;;;26.63;43.53
62791;BME280;48830;53.426;10.300;2023-06-14T11:35:14;101926.94;;;27.29;44.17
62791;BME280;48830;53.426;10.300;2023-06-14T11:37:40;101923.50;;;27.27;43.55
62791;BME280;48830;53.426;10.300;2023-06-14T11:40:07;101920.97;;;27.24;42.60
62791;BME280;48830;53.426;10.300;2023-06-14T11:42:33;101925.09;;;27.06;42.58
62791;BME280;48830;53.426;10.300;2023-06-14T11:44:59;101913.19;;;26.94;43.33
62791;BME280;48830;53.426;10.300;2023-06-14T11:47:31;101912.97;;;27.01;43.28
62791;BME280;48830;53.426;10.300;2023-06-14T11:49:58;101910.75;;;27.15;42.88
62791;BME280;48830;53.426;10.300;2023-06-14T11:52:24;101911.69;;;27.61;42.01
62791;BME280;48830;53.426;10.300;2023-06-14T11:54:49;101909.06;;;27.61;42.02
62791;BME280;48830;53.426;10.300;2023-06-14T11:57:17;101905.03;;;27.74;42.74
62791;BME280;48830;53.426;10.300;2023-06-14T11:59:44;101905.81;;;27.53;41.64
62791;BME280;48830;53.426;10.300;2023-06-14T12:02:14;101899.56;;;27.79;42.38
62791;BME280;48830;53.426;10.300;2023-06-14T12:04:49;101910.16;;;28.44;41.00
62791;BME280;48830;53.426;10.300;2023-06-14T12:07:16;101899.72;;;28.62;40.74
62791;BME280;48830;53.426;10.300;2023-06-14T12:12:24;101891.88;;;28.81;38.83
62791;BME280;48830;53.426;10.300;2023-06-14T12:14:55;101895.63;;;28.75;39.80
62791;BME280;48830;53.426;10.300;2023-06-14T12:17:21;101891.50;;;28.04;41.85
62791;BME280;48830;53.426;10.300;2023-06-14T12:19:48;101879.03;;;28.07;43.14
62791;BME280;48830;53.426;10.300;2023-06-14T12:22:15;101889.75;;;28.26;44.71
62791;BME280;48830;53.426;10.300;2023-06-14T12:24:44;101889.41;;;28.76;42.84
62791;BME280;48830;53.426;10.300;2023-06-14T12:27:11;101879.88;;;29.13;43.16
62791;BME280;48830;53.426;10.300;2023-06-14T12:29:41;101885.09;;;28.73;41.92
62791;BME280;48830;53.426;10.300;2023-06-14T12:32:10;101881.25;;;28.40;42.88
62791;BME280;48830;53.426;10.300;2023-06-14T12:34:37;101894.78;;;28.10;40.08
62791;BME280;48830;53.426;10.300;2023-06-14T12:37:02;101887.75;;;28.53;39.47
62791;BME280;48830;53.426;10.300;2023-06-14T12:39:31;101880.94;;;28.88;39.17
62791;BME280;48830;53.426;10.300;2023-06-14T12:41:57;101885.56;;;28.83;37.99
62791;BME280;48830;53.426;10.300;2023-06-14T12:44:23;101874.50;;;28.95;39.59
62791;BME280;48830;53.426;10.300;2023-06-14T12:46:48;101884.13;;;28.76;37.94
62791;BME280;48830;53.426;10.300;2023-06-14T12:49:16;101882.50;;;28.51;38.96
62791;BME280;48830;53.426;10.300;2023-06-14T12:51:42;101885.13;;;28.53;40.37
62791;BME280;48830;53.426;10.300;2023-06-14T12:54:07;101881.00;;;28.66;39.32
62791;BME280;48830;53.426;10.300;2023-06-14T12:56:33;101882.91;;;28.83;39.34
62791;BME280;48830;53.426;10.300;2023-06-14T12:58:59;101869.81;;;29.00;39.75
62791;BME280;48830;53.426;10.300;2023-06-14T13:01:24;101873.69;;;29.51;40.56